createdAt,value
2022-11-13T00:01:35.376Z,8.20
2022-11-13T00:03:59.243Z,7.93
2022-11-13T00:06:21.276Z,8.15
2022-11-13T00:08:44.577Z,8.35
2022-11-13T00:11:09.434Z,8.38
2022-11-13T00:13:31.327Z,7.85
2022-11-13T00:15:58.245Z,8.60
2022-11-13T00:18:19.910Z,8.60
2022-11-13T00:20:41.683Z,8.38
2022-11-13T00:23:03.286Z,8.20
2022-11-13T00:25:26.487Z,8.60
2022-11-13T00:27:48.128Z,8.30
2022-11-13T00:30:13.772Z,8.82
2022-11-13T00:32:40.165Z,9.52
2022-11-13T00:35:01.756Z,8.32
2022-11-13T00:37:23.320Z,8.48
2022-11-13T00:39:45.110Z,8.15
2022-11-13T00:42:08.216Z,7.75
2022-11-13T00:44:29.859Z,8.10
2022-11-13T00:46:51.330Z,8.23
2022-11-13T00:49:13.108Z,8.02
2022-11-13T00:51:34.514Z,7.50
2022-11-13T00:53:56.232Z,8.45
2022-11-13T00:56:17.822Z,10.55
2022-11-13T00:58:40.720Z,10.18
2022-11-13T01:01:06.686Z,10.32
2022-11-13T01:03:28.423Z,8.75
2022-11-13T01:05:50.213Z,8.70
2022-11-13T01:08:13.350Z,7.93
2022-11-13T01:10:42.321Z,7.53
2022-11-13T01:13:04.211Z,8.70
2022-11-13T01:15:27.736Z,8.40
2022-11-13T01:17:49.502Z,8.23
2022-11-13T01:20:12.191Z,8.02
2022-11-13T01:22:33.666Z,7.65
2022-11-13T01:24:55.118Z,8.63
2022-11-13T01:27:16.574Z,7.18
2022-11-13T01:29:38.931Z,7.32
2022-11-13T01:32:01.796Z,7.10
2022-11-13T01:34:23.879Z,7.70
2022-11-13T01:36:45.779Z,8.48
2022-11-13T01:39:07.105Z,7.70
2022-11-13T01:41:31.905Z,8.50
2022-11-13T01:43:54.510Z,8.32
2022-11-13T01:46:22.718Z,7.35
2022-11-13T01:48:48.473Z,7.97
2022-11-13T01:51:13.140Z,7.35
2022-11-13T01:53:35.093Z,8.35
2022-11-13T01:55:57.166Z,8.30
2022-11-13T01:58:18.866Z,8.18
2022-11-13T02:00:40.393Z,7.60
2022-11-13T02:03:02.741Z,7.03
2022-11-13T02:05:26.250Z,8.50
2022-11-13T02:07:49.332Z,7.85
2022-11-13T02:10:10.901Z,7.82
2022-11-13T02:12:35.675Z,7.75
2022-11-13T02:14:59.359Z,8.55
2022-11-13T02:17:24.353Z,8.60
2022-11-13T02:19:49.663Z,8.48
2022-11-13T02:22:18.067Z,8.15
2022-11-13T02:24:45.237Z,8.93
2022-11-13T02:27:09.841Z,8.52
2022-11-13T02:29:31.976Z,7.50
2022-11-13T02:31:53.806Z,7.63
2022-11-13T02:34:16.545Z,8.05
2022-11-13T02:36:38.294Z,8.13
2022-11-13T02:39:03.061Z,8.48
2022-11-13T02:41:26.583Z,7.85
2022-11-13T02:43:48.653Z,7.43
2022-11-13T02:46:10.301Z,8.07
2022-11-13T02:48:32.137Z,7.35
2022-11-13T02:50:54.423Z,8.10
2022-11-13T02:53:16.592Z,7.55
2022-11-13T02:55:38.744Z,7.90
2022-11-13T02:58:02.195Z,8.05
2022-11-13T03:00:24.638Z,7.80
2022-11-13T03:02:46.909Z,7.10
2022-11-13T03:05:12.550Z,8.25
2022-11-13T03:07:35.801Z,6.80
2022-11-13T03:09:58.064Z,7.25
2022-11-13T03:12:20.332Z,7.15
2022-11-13T03:14:43.878Z,7.50
2022-11-13T03:17:05.636Z,7.60
2022-11-13T03:19:28.228Z,8.18
2022-11-13T03:21:50.152Z,7.00
2022-11-13T03:24:12.209Z,7.45
2022-11-13T03:26:34.732Z,6.93
2022-11-13T03:28:57.415Z,7.10
2022-11-13T03:31:23.434Z,7.40
2022-11-13T03:33:45.752Z,8.00
2022-11-13T03:36:08.166Z,7.50
2022-11-13T03:38:31.004Z,7.07
2022-11-13T03:40:53.645Z,7.20
2022-11-13T03:43:16.486Z,7.47
2022-11-13T03:45:38.866Z,7.55
2022-11-13T03:48:01.948Z,6.93
2022-11-13T03:50:23.851Z,7.10
2022-11-13T03:52:45.913Z,6.63
2022-11-13T03:55:08.491Z,6.30
2022-11-13T03:57:32.114Z,6.82
2022-11-13T03:59:53.665Z,6.63
2022-11-13T04:02:15.234Z,7.03
2022-11-13T04:04:38.095Z,6.85
2022-11-13T04:06:59.839Z,6.93
2022-11-13T04:09:21.842Z,7.60
2022-11-13T04:11:43.478Z,7.35
2022-11-13T04:14:05.214Z,7.00
2022-11-13T04:16:26.775Z,7.75
2022-11-13T04:18:48.287Z,8.32
2022-11-13T04:21:11.496Z,7.70
2022-11-13T04:23:33.133Z,8.30
2022-11-13T04:25:54.651Z,8.15
2022-11-13T04:28:16.526Z,7.78
2022-11-13T04:30:38.485Z,8.55
2022-11-13T04:33:00.002Z,8.07
2022-11-13T04:35:21.464Z,8.15
2022-11-13T04:37:44.280Z,8.05
2022-11-13T04:40:06.942Z,8.15
2022-11-13T04:42:46.355Z,8.30
2022-11-13T04:45:08.734Z,7.20
2022-11-13T04:47:30.055Z,7.45
2022-11-13T04:49:51.652Z,7.80
2022-11-13T04:52:13.428Z,7.75
2022-11-13T04:54:36.718Z,7.35
2022-11-13T04:56:58.149Z,8.25
2022-11-13T04:59:19.691Z,7.82
2022-11-13T05:01:41.556Z,6.88
2022-11-13T05:04:03.522Z,8.90
2022-11-13T05:06:25.321Z,7.60
2022-11-13T05:08:47.512Z,7.30
2022-11-13T05:11:10.374Z,9.18
2022-11-13T05:13:33.132Z,10.07
2022-11-13T05:16:01.637Z,8.93
2022-11-13T05:18:26.387Z,7.85
2022-11-13T05:20:48.596Z,8.32
2022-11-13T05:23:10.028Z,7.53
2022-11-13T05:25:32.287Z,8.15
2022-11-13T05:27:55.690Z,8.88
2022-11-13T05:30:17.850Z,7.65
2022-11-13T05:32:39.571Z,7.60
2022-11-13T05:35:01.091Z,7.57
2022-11-13T05:37:22.900Z,8.73
2022-11-13T05:39:45.159Z,8.80
2022-11-13T05:42:07.024Z,7.93
2022-11-13T05:44:29.721Z,9.52
2022-11-13T05:46:51.064Z,8.63
2022-11-13T05:49:12.516Z,7.82
2022-11-13T05:51:35.337Z,8.43
2022-11-13T05:53:57.350Z,8.77
2022-11-13T05:56:20.242Z,9.25
2022-11-13T05:58:42.964Z,9.93
2022-11-13T06:01:11.756Z,9.05
2022-11-13T06:03:33.132Z,9.80
2022-11-13T06:05:54.925Z,8.77
2022-11-13T06:08:18.580Z,8.93
2022-11-13T06:10:40.026Z,9.07
2022-11-13T06:13:01.635Z,8.50
2022-11-13T06:15:22.958Z,7.85
2022-11-13T06:17:47.864Z,8.15
2022-11-13T06:20:10.535Z,9.55
2022-11-13T06:22:31.951Z,11.07
2022-11-13T06:24:53.348Z,8.95
2022-11-13T06:27:14.863Z,8.77
2022-11-13T06:29:36.396Z,9.00
2022-11-13T06:31:58.455Z,9.45
2022-11-13T06:34:21.556Z,9.73
2022-11-13T06:36:43.168Z,9.25
2022-11-13T06:39:07.493Z,8.80
2022-11-13T06:41:31.363Z,9.15
2022-11-13T06:43:53.061Z,10.90
2022-11-13T06:46:15.925Z,10.50
2022-11-13T06:48:37.539Z,11.55
2022-11-13T06:51:03.542Z,11.20
2022-11-13T06:53:25.292Z,12.27
2022-11-13T06:55:49.630Z,10.95
2022-11-13T06:58:11.351Z,12.90
2022-11-13T07:00:36.674Z,10.77
2022-11-13T07:02:59.744Z,9.88
2022-11-13T07:05:21.138Z,11.80
2022-11-13T07:07:44.748Z,11.27
2022-11-13T07:10:06.990Z,9.35
2022-11-13T07:12:29.918Z,9.30
2022-11-13T07:14:51.636Z,9.82
2022-11-13T07:17:14.571Z,10.13
2022-11-13T07:19:36.235Z,9.23
2022-11-13T07:21:57.685Z,9.32
2022-11-13T07:24:20.790Z,9.02
2022-11-13T07:26:42.322Z,7.63
2022-11-13T07:29:04.174Z,11.30
2022-11-13T07:31:25.856Z,8.93
2022-11-13T07:33:49.138Z,9.40
2022-11-13T07:36:11.654Z,10.38
2022-11-13T07:38:33.061Z,10.48
2022-11-13T07:40:56.204Z,8.73
2022-11-13T07:43:17.645Z,9.73
2022-11-13T07:45:39.323Z,10.63
2022-11-13T07:48:01.442Z,8.40
2022-11-13T07:50:23.214Z,10.70
2022-11-13T07:52:45.452Z,8.15
2022-11-13T07:55:08.243Z,7.60
2022-11-13T07:57:31.273Z,8.23
2022-11-13T07:59:52.699Z,8.90
2022-11-13T08:02:16.364Z,8.55
2022-11-13T08:04:38.056Z,9.13
2022-11-13T08:06:59.848Z,8.10
2022-11-13T08:09:22.297Z,7.85
2022-11-13T08:11:44.227Z,8.27
2022-11-13T08:14:07.735Z,8.40
2022-11-13T08:16:29.677Z,8.70
2022-11-13T08:18:51.630Z,8.85
2022-11-13T08:21:15.156Z,9.40
2022-11-13T08:23:36.693Z,8.43
2022-11-13T08:25:58.763Z,9.57
2022-11-13T08:28:20.497Z,10.38
2022-11-13T08:30:45.697Z,11.80
2022-11-13T08:33:07.315Z,11.43
2022-11-13T08:35:29.823Z,11.20
2022-11-13T08:37:51.697Z,11.85
2022-11-13T08:40:13.658Z,12.50
2022-11-13T08:42:35.185Z,12.45
2022-11-13T08:44:56.710Z,13.85
2022-11-13T08:47:19.857Z,12.63
2022-11-13T08:49:42.588Z,12.80
2022-11-13T08:52:04.298Z,11.90
2022-11-13T08:54:26.567Z,12.48
2022-11-13T08:56:53.033Z,15.23
2022-11-13T08:59:17.682Z,13.18
2022-11-13T09:01:39.134Z,12.90
2022-11-13T09:04:02.841Z,12.98
2022-11-13T09:06:24.669Z,10.73
2022-11-13T09:08:46.175Z,13.20
2022-11-13T09:11:08.014Z,13.40
2022-11-13T09:13:29.923Z,13.90
2022-11-13T09:15:51.388Z,11.95
2022-11-13T09:18:12.984Z,12.75
2022-11-13T09:20:36.356Z,12.20
2022-11-13T09:23:00.015Z,11.98
2022-11-13T09:25:21.783Z,11.75
2022-11-13T09:27:43.324Z,11.98
2022-11-13T09:30:05.814Z,11.88
2022-11-13T09:32:27.423Z,12.35
2022-11-13T09:34:49.469Z,10.80
2022-11-13T09:37:12.341Z,11.02
2022-11-13T09:39:34.342Z,11.95
2022-11-13T09:41:59.818Z,10.55
2022-11-13T09:44:25.716Z,11.05
2022-11-13T09:46:50.410Z,10.30
2022-11-13T09:49:17.500Z,10.93
2022-11-13T09:51:40.028Z,10.82
2022-11-13T09:54:06.603Z,10.57
2022-11-13T09:56:30.563Z,10.70
2022-11-13T09:58:59.183Z,11.45
2022-11-13T10:01:27.686Z,10.80
2022-11-13T10:04:01.474Z,11.10
2022-11-13T10:06:28.700Z,11.90
2022-11-13T10:08:57.210Z,12.02
2022-11-13T10:11:28.014Z,12.98
2022-11-13T10:13:51.928Z,11.85
2022-11-13T10:16:21.449Z,11.93
2022-11-13T10:18:44.400Z,12.07
2022-11-13T10:21:14.136Z,12.82
2022-11-13T10:23:38.194Z,11.45
2022-11-13T10:26:05.365Z,12.20
2022-11-13T10:28:49.569Z,12.00
2022-11-13T10:31:11.478Z,12.32
2022-11-13T10:33:33.122Z,11.55
2022-11-13T10:35:58.736Z,10.40
2022-11-13T10:38:26.923Z,9.77
2022-11-13T10:40:49.177Z,10.85
2022-11-13T10:43:15.979Z,10.68
2022-11-13T10:45:40.089Z,10.35
2022-11-13T10:48:04.579Z,12.57
2022-11-13T10:50:28.684Z,11.55
2022-11-13T10:52:51.582Z,12.98
2022-11-13T10:55:17.664Z,16.25
2022-11-13T10:57:39.602Z,13.07
2022-11-13T11:00:01.602Z,12.20
2022-11-13T11:02:25.900Z,10.57
2022-11-13T11:04:48.624Z,11.52
2022-11-13T11:07:20.890Z,11.77
2022-11-13T11:09:44.421Z,12.07
2022-11-13T11:12:18.904Z,12.40
2022-11-13T11:14:45.262Z,12.52
2022-11-13T11:17:07.440Z,12.63
2022-11-13T11:19:32.254Z,12.20
2022-11-13T11:21:55.979Z,21.63
2022-11-13T11:24:21.430Z,12.82
2022-11-13T11:26:47.274Z,12.27
2022-11-13T11:29:15.950Z,12.38
2022-11-13T11:31:43.034Z,10.48
2022-11-13T11:34:14.151Z,10.75
2022-11-13T11:36:43.000Z,10.45
2022-11-13T11:39:13.102Z,10.52
2022-11-13T11:41:39.754Z,9.43
2022-11-13T11:44:06.342Z,11.15
2022-11-13T11:46:28.490Z,11.40
2022-11-13T11:48:51.061Z,11.70
2022-11-13T11:51:22.795Z,11.82
2022-11-13T11:53:54.083Z,11.68
2022-11-13T11:56:23.572Z,11.77
2022-11-13T11:59:05.696Z,11.95
2022-11-13T12:01:35.014Z,12.10
2022-11-13T12:04:08.205Z,12.18
2022-11-13T12:06:40.889Z,13.25
2022-11-13T12:09:09.510Z,13.80
2022-11-13T12:11:33.388Z,12.85
2022-11-13T12:14:03.540Z,13.13
2022-11-13T12:16:31.223Z,11.52
2022-11-13T12:18:57.092Z,11.95
2022-11-13T12:21:23.557Z,10.93
2022-11-13T12:23:58.008Z,11.95
2022-11-13T12:26:25.436Z,12.00
2022-11-13T12:28:51.159Z,11.75
2022-11-13T12:31:20.273Z,12.57
2022-11-13T12:33:49.513Z,11.75
2022-11-13T12:36:12.719Z,12.60
2022-11-13T12:38:40.091Z,11.80
2022-11-13T12:41:09.073Z,13.45
2022-11-13T12:43:43.260Z,12.57
2022-11-13T12:46:08.817Z,13.07
2022-11-13T12:48:35.029Z,11.80
2022-11-13T12:51:01.204Z,11.85
2022-11-13T12:53:26.985Z,12.20
2022-11-13T12:55:59.990Z,12.03
2022-11-13T12:58:25.501Z,11.70
2022-11-13T13:00:55.616Z,11.87
2022-11-13T13:03:31.868Z,11.60
2022-11-13T13:06:03.848Z,11.52
2022-11-13T13:08:48.548Z,11.90
2022-11-13T13:11:19.386Z,11.83
2022-11-13T13:13:46.464Z,12.43
2022-11-13T13:16:09.938Z,12.10
2022-11-13T13:18:34.057Z,12.10
2022-11-13T13:21:07.412Z,11.77
2022-11-13T13:23:32.081Z,11.50
2022-11-13T13:26:03.621Z,12.57
2022-11-13T13:28:25.573Z,12.10
2022-11-13T13:30:52.787Z,11.60
2022-11-13T13:33:22.062Z,12.60
2022-11-13T13:35:56.156Z,13.77
2022-11-13T13:38:25.210Z,13.10
2022-11-13T13:41:00.531Z,13.30
2022-11-13T13:43:35.639Z,13.60
2022-11-13T13:46:03.253Z,13.93
2022-11-13T13:48:28.437Z,14.00
2022-11-13T13:50:52.064Z,13.80
2022-11-13T13:53:17.162Z,13.57
2022-11-13T13:55:40.686Z,14.10
2022-11-13T13:58:05.726Z,12.70
2022-11-13T14:00:27.676Z,14.40
2022-11-13T14:02:50.436Z,13.30
2022-11-13T14:05:27.301Z,14.97
2022-11-13T14:07:49.177Z,15.60
2022-11-13T14:10:16.881Z,14.93
2022-11-13T14:12:42.365Z,14.67
2022-11-13T14:15:06.618Z,16.00
2022-11-13T14:17:29.160Z,15.17
2022-11-13T14:19:51.399Z,14.57
2022-11-13T14:22:14.378Z,15.03
2022-11-13T14:24:47.937Z,15.87
2022-11-13T14:27:12.018Z,14.83
2022-11-13T14:29:37.165Z,15.00
2022-11-13T14:32:04.452Z,14.73
2022-11-13T14:34:25.864Z,16.20
2022-11-13T14:36:48.374Z,15.20
2022-11-13T14:39:20.772Z,15.90
2022-11-13T14:41:47.558Z,15.67
2022-11-13T14:44:11.785Z,16.40
2022-11-13T14:46:37.020Z,16.10
2022-11-13T14:48:59.126Z,20.53
2022-11-13T14:51:24.969Z,16.57
2022-11-13T14:53:58.493Z,15.90
2022-11-13T14:56:33.432Z,16.00
2022-11-13T14:58:55.042Z,15.00
2022-11-13T15:01:18.140Z,15.20
2022-11-13T15:03:39.769Z,16.60
2022-11-13T15:06:01.317Z,17.83
2022-11-13T15:08:22.953Z,16.20
2022-11-13T15:10:44.953Z,16.17
2022-11-13T15:13:12.852Z,16.17
2022-11-13T15:15:34.718Z,15.77
2022-11-13T15:17:56.848Z,16.47
2022-11-13T15:20:22.384Z,21.47
2022-11-13T15:22:44.122Z,17.40
2022-11-13T15:25:10.382Z,15.93
2022-11-13T15:27:32.096Z,14.80
2022-11-13T15:29:54.606Z,14.80
2022-11-13T15:32:16.622Z,15.67
2022-11-13T15:34:38.203Z,25.87
2022-11-13T15:36:59.897Z,17.97
2022-11-13T15:39:24.016Z,16.80
2022-11-13T15:41:47.146Z,15.93
2022-11-13T15:44:13.527Z,15.93
2022-11-13T15:46:36.647Z,15.73
2022-11-13T15:48:58.365Z,16.73
2022-11-13T15:51:23.125Z,18.27
2022-11-13T15:53:45.556Z,16.30
2022-11-13T15:56:07.974Z,16.70
2022-11-13T15:58:33.492Z,15.83
2022-11-13T16:00:56.357Z,15.20
2022-11-13T16:03:19.276Z,16.40
2022-11-13T16:05:40.759Z,15.63
2022-11-13T16:08:02.571Z,15.67
2022-11-13T16:10:25.821Z,15.85
2022-11-13T16:12:47.597Z,16.90
2022-11-13T16:15:10.812Z,28.88
2022-11-13T16:17:34.732Z,26.27
2022-11-13T16:19:57.976Z,19.13
2022-11-13T16:22:21.840Z,16.95
2022-11-13T16:24:44.064Z,17.15
2022-11-13T16:27:06.306Z,16.15
2022-11-13T16:29:28.354Z,17.33
2022-11-13T16:31:50.190Z,17.67
2022-11-13T16:34:11.639Z,17.30
2022-11-13T16:36:34.845Z,17.33
2022-11-13T16:38:56.658Z,17.00
2022-11-13T16:41:20.281Z,18.17
2022-11-13T16:43:42.111Z,17.05
2022-11-13T16:46:03.938Z,20.05
2022-11-13T16:48:25.440Z,19.60
2022-11-13T16:50:47.096Z,17.65
2022-11-13T16:53:10.429Z,16.05
2022-11-13T16:55:32.081Z,16.40
2022-11-13T16:57:53.574Z,16.67
2022-11-13T17:00:17.391Z,18.20
2022-11-13T17:02:39.678Z,25.33
2022-11-13T17:05:01.357Z,36.15
2022-11-13T17:07:23.319Z,72.15
2022-11-13T17:09:55.110Z,70.43
2022-11-13T17:12:25.710Z,55.97
2022-11-13T17:14:47.403Z,49.47
2022-11-13T17:17:13.126Z,45.33
2022-11-13T17:19:34.860Z,26.00
2022-11-13T17:21:56.625Z,30.33
2022-11-13T17:24:19.483Z,19.55
2022-11-13T17:26:42.247Z,20.70
2022-11-13T17:29:05.685Z,17.38
2022-11-13T17:31:27.856Z,16.20
2022-11-13T17:33:49.607Z,15.77
2022-11-13T17:36:12.110Z,16.05
2022-11-13T17:38:33.985Z,19.95
2022-11-13T17:40:55.750Z,20.88
2022-11-13T17:43:18.905Z,23.08
2022-11-13T17:45:40.692Z,18.85
2022-11-13T17:48:02.514Z,17.10
2022-11-13T17:50:24.279Z,18.38
2022-11-13T17:52:45.811Z,17.13
2022-11-13T17:55:10.752Z,18.27
2022-11-13T17:57:33.382Z,18.02
2022-11-13T17:59:56.561Z,17.08
2022-11-13T18:02:18.237Z,16.70
2022-11-13T18:04:40.115Z,17.85
2022-11-13T18:07:01.921Z,20.33
2022-11-13T18:09:23.331Z,27.88
2022-11-13T18:11:45.176Z,26.17
2022-11-13T18:14:07.179Z,26.55
2022-11-13T18:16:33.925Z,20.23
2022-11-13T18:18:57.904Z,15.82
2022-11-13T18:21:23.483Z,19.92
2022-11-13T18:23:45.674Z,32.15
2022-11-13T18:26:09.742Z,29.73
2022-11-13T18:28:31.418Z,28.48
2022-11-13T18:30:56.586Z,27.45
2022-11-13T18:33:20.174Z,24.35
2022-11-13T18:35:42.327Z,53.08
2022-11-13T18:38:04.117Z,28.73
2022-11-13T18:40:26.039Z,29.73
2022-11-13T18:42:47.979Z,29.95
2022-11-13T18:45:11.731Z,28.70
2022-11-13T18:47:35.534Z,43.75
2022-11-13T18:49:58.813Z,43.67
2022-11-13T18:52:20.596Z,39.80
2022-11-13T18:54:42.257Z,39.60
2022-11-13T18:57:04.152Z,35.88
2022-11-13T18:59:25.666Z,32.00
2022-11-13T19:01:47.435Z,28.23
2022-11-13T19:04:25.683Z,23.65
2022-11-13T19:06:49.306Z,21.92
2022-11-13T19:09:13.598Z,21.60
2022-11-13T19:11:35.636Z,22.15
2022-11-13T19:13:57.682Z,23.45
2022-11-13T19:16:21.314Z,21.65
2022-11-13T19:18:44.121Z,21.50
2022-11-13T19:21:07.127Z,20.77
2022-11-13T19:23:30.066Z,19.58
2022-11-13T19:25:51.671Z,23.92
2022-11-13T19:28:13.313Z,21.77
2022-11-13T19:30:35.006Z,20.80
2022-11-13T19:32:56.971Z,18.98
2022-11-13T19:35:18.873Z,16.80
2022-11-13T19:37:40.861Z,16.50
2022-11-13T19:40:04.353Z,17.20
2022-11-13T19:42:26.048Z,17.65
2022-11-13T19:44:48.493Z,21.17
2022-11-13T19:47:10.315Z,80.78
2022-11-13T19:49:31.960Z,59.47
2022-11-13T19:51:54.746Z,59.63
2022-11-13T19:54:17.010Z,26.45
2022-11-13T19:56:40.028Z,27.65
2022-11-13T19:59:01.938Z,26.08
2022-11-13T20:01:25.822Z,24.70
2022-11-13T20:03:48.475Z,20.65
2022-11-13T20:06:11.831Z,21.50
2022-11-13T20:08:34.954Z,23.50
2022-11-13T20:11:02.132Z,19.45
2022-11-13T20:13:25.325Z,19.33
2022-11-13T20:15:54.102Z,19.70
2022-11-13T20:18:16.883Z,18.08
2022-11-13T20:20:38.876Z,18.58
2022-11-13T20:23:03.645Z,21.45
2022-11-13T20:25:25.267Z,19.92
2022-11-13T20:27:47.742Z,20.90
2022-11-13T20:30:13.011Z,20.73
2022-11-13T20:32:37.650Z,19.65
2022-11-13T20:34:59.536Z,17.20
2022-11-13T20:37:21.197Z,17.45
2022-11-13T20:39:42.875Z,16.25
2022-11-13T20:42:05.107Z,19.02
2022-11-13T20:44:27.574Z,18.17
2022-11-13T20:46:50.395Z,19.75
2022-11-13T20:49:13.348Z,17.17
2022-11-13T20:51:35.757Z,19.85
2022-11-13T20:53:57.811Z,19.63
2022-11-13T20:56:21.639Z,19.70
2022-11-13T20:58:44.298Z,19.73
2022-11-13T21:01:08.210Z,18.08
2022-11-13T21:03:31.698Z,19.15
2022-11-13T21:05:53.742Z,19.35
2022-11-13T21:08:15.816Z,20.17
2022-11-13T21:10:37.428Z,17.90
2022-11-13T21:12:59.376Z,16.90
2022-11-13T21:15:21.711Z,19.10
2022-11-13T21:17:43.794Z,16.95
2022-11-13T21:20:08.497Z,16.55
2022-11-13T21:22:30.136Z,16.17
2022-11-13T21:24:51.727Z,16.77
2022-11-13T21:27:13.571Z,15.55
2022-11-13T21:29:36.590Z,16.40
2022-11-13T21:31:58.758Z,17.88
2022-11-13T21:34:21.842Z,20.35
2022-11-13T21:36:45.307Z,16.85
2022-11-13T21:39:07.159Z,16.23
2022-11-13T21:41:29.932Z,15.55
2022-11-13T21:43:53.261Z,14.27
2022-11-13T21:46:15.035Z,13.82
2022-11-13T21:48:37.310Z,14.95
2022-11-13T21:50:59.563Z,15.07
2022-11-13T21:53:22.907Z,17.98
2022-11-13T21:55:50.123Z,18.98
2022-11-13T21:58:11.869Z,22.95
2022-11-13T22:00:34.195Z,27.00
2022-11-13T22:02:55.822Z,26.95
2022-11-13T22:05:17.659Z,24.83
2022-11-13T22:07:39.139Z,21.60
2022-11-13T22:10:07.926Z,17.55
2022-11-13T22:12:31.061Z,15.95
2022-11-13T22:14:52.566Z,16.52
2022-11-13T22:17:14.531Z,20.40
2022-11-13T22:19:36.682Z,19.50
2022-11-13T22:21:58.563Z,19.15
2022-11-13T22:24:20.487Z,19.70
2022-11-13T22:26:45.241Z,18.90
2022-11-13T22:29:07.346Z,16.02
2022-11-13T22:31:30.346Z,15.93
2022-11-13T22:33:55.158Z,15.57
2022-11-13T22:36:19.656Z,16.58
2022-11-13T22:38:41.186Z,15.52
2022-11-13T22:41:04.306Z,16.40
2022-11-13T22:43:27.428Z,18.85
2022-11-13T22:45:48.789Z,21.20
2022-11-13T22:48:11.568Z,19.80
2022-11-13T22:50:35.903Z,20.75
2022-11-13T22:52:57.613Z,19.50
2022-11-13T22:55:19.523Z,17.73
2022-11-13T22:57:40.995Z,16.67
2022-11-13T23:00:09.209Z,16.55
2022-11-13T23:02:30.888Z,19.23
2022-11-13T23:04:52.528Z,18.13
2022-11-13T23:07:14.152Z,18.30
2022-11-13T23:09:35.929Z,17.40
2022-11-13T23:11:57.671Z,17.42
2022-11-13T23:14:19.071Z,15.85
2022-11-13T23:16:43.167Z,15.55
2022-11-13T23:19:05.481Z,16.25
2022-11-13T23:21:27.767Z,15.10
2022-11-13T23:23:49.456Z,15.77
2022-11-13T23:26:12.117Z,15.90
2022-11-13T23:28:33.877Z,16.40
2022-11-13T23:30:55.724Z,14.50
2022-11-13T23:33:18.966Z,14.52
2022-11-13T23:35:40.870Z,15.50
2022-11-13T23:38:02.626Z,15.07
2022-11-13T23:40:24.541Z,15.88
2022-11-13T23:42:55.270Z,15.07
2022-11-13T23:45:17.435Z,15.43
2022-11-13T23:47:39.387Z,15.77
2022-11-13T23:50:02.523Z,14.45
2022-11-13T23:52:24.387Z,15.70
2022-11-13T23:54:45.970Z,14.90
2022-11-13T23:57:07.617Z,24.88
2022-11-13T23:59:29.074Z,17.88
